Været på Ålesund Lufhavn, Vigra (ENAL)

 

Time for time, neste 48 timer:

Detaljert varsel fra yr.no - 48 timer

Vindprognose for Breisundet:

Vindvarsel

Upper Winds 3000 fot akkurat nå:

ENAL akkurat nå:

  • METAR: 282120Z AUTO 36017KT 9999 FEW035/// SCT057/// BKN076/// M00/M03 Q1039
  • TAF: TAF 281700Z 2818/2823 36015KT 9999 FEW015CB SCT035 TEMPO 2818/2823 36020G30KT 0800 SHSN VV006